Time;durP1;ratioP1;P1;durP2;ratioP2;P2;SDS_P1;SDS_P2;PMS_P1;PMS_P2;Temp;Humidity;BMP_temperature;BMP_pressure;BME280_temperature;BME280_humidity;BME280_pressure;Samples;Min_cycle;Max_cycle;Signal;HPM_P1;HPM_P2
2023/01/30 00:00:51;;;;;;;31.43;14.93;;;;;;;;;;5096881;28;20442;-73
2023/01/30 00:03:18;;;;;;;37.07;15.60;;;;;;;;;;5096496;28;20450;-73
2023/01/30 00:05:46;;;;;;;28.47;14.60;;;;;;;;;;5096606;28;20450;-74
2023/01/30 00:08:13;;;;;;;28.27;15.33;;;;;;;;;;5096860;28;20844;-73
2023/01/30 00:10:40;;;;;;;28.77;16.83;;;;;;;;;;5096844;28;20458;-73
2023/01/30 00:13:07;;;;;;;31.30;15.53;;;;;;;;;;5096694;28;20454;-73
2023/01/30 00:15:34;;;;;;;40.13;17.47;;;;;;;;;;5096571;28;20473;-73
2023/01/30 00:18:02;;;;;;;35.27;15.67;;;;;;;;;;5096817;28;20453;-73
2023/01/30 00:20:29;;;;;;;29.10;15.30;;;;;;;;;;5096747;28;20986;-73
2023/01/30 00:22:58;;;;;;;27.50;14.83;;;;;;;;;;5096657;28;20458;-73
2023/01/30 00:25:25;;;;;;;32.53;15.10;;;;;;;;;;5096314;28;20478;-73
2023/01/30 00:27:52;;;;;;;25.83;13.47;;;;;;;;;;5096156;28;20493;-73
2023/01/30 00:30:20;;;;;;;34.73;16.77;;;;;;;;;;5096196;28;20471;-73
2023/01/30 00:32:47;;;;;;;26.73;13.70;;;;;;;;;;5096252;28;20449;-73
2023/01/30 00:35:14;;;;;;;27.57;14.80;;;;;;;;;;5096099;28;20454;-73
2023/01/30 00:37:41;;;;;;;30.77;16.13;;;;;;;;;;5096125;28;20442;-72
2023/01/30 00:40:10;;;;;;;27.03;14.80;;;;;;;;;;5096019;28;20474;-72
2023/01/30 00:48:07;;;;;;;32.03;16.77;;;;;;;;;;5095851;28;20497;-73
2023/01/30 00:50:42;;;;;;;30.63;16.23;;;;;;;;;;5095750;28;20466;-72
2023/01/30 00:53:10;;;;;;;34.37;16.73;;;;;;;;;;5095844;28;20466;-72
2023/01/30 00:55:38;;;;;;;35.87;16.27;;;;;;;;;;5096007;28;20439;-73
2023/01/30 00:58:05;;;;;;;26.60;13.30;;;;;;;;;;5095136;28;20446;-73
2023/01/30 01:00:33;;;;;;;32.40;17.23;;;;;;;;;;5095887;28;20470;-72
2023/01/30 01:03:00;;;;;;;31.27;15.50;;;;;;;;;;5095832;28;20458;-73
2023/01/30 01:05:27;;;;;;;32.93;16.50;;;;;;;;;;5095762;28;20822;-72
2023/01/30 01:07:54;;;;;;;26.60;14.97;;;;;;;;;;5095530;28;20494;-73
2023/01/30 01:10:21;;;;;;;38.80;15.67;;;;;;;;;;5095646;28;20981;-72
2023/01/30 01:12:52;;;;;;;30.63;15.90;;;;;;;;;;5095591;28;20525;-73
2023/01/30 01:15:20;;;;;;;36.20;16.47;;;;;;;;;;5095450;28;20755;-73
2023/01/30 01:17:48;;;;;;;32.73;17.10;;;;;;;;;;5095330;28;20453;-73
2023/01/30 01:20:15;;;;;;;25.90;13.90;;;;;;;;;;5095515;28;20842;-73
2023/01/30 01:22:42;;;;;;;36.70;18.80;;;;;;;;;;5095282;28;20469;-73
2023/01/30 01:25:10;;;;;;;32.77;14.37;;;;;;;;;;5095015;28;20855;-73
2023/01/30 01:27:37;;;;;;;32.43;15.80;;;;;;;;;;5095229;28;20494;-73
2023/01/30 01:30:06;;;;;;;29.30;13.80;;;;;;;;;;5095075;28;20475;-72
2023/01/30 01:32:33;;;;;;;33.27;17.73;;;;;;;;;;5095166;28;20462;-73
2023/01/30 01:35:00;;;;;;;29.60;17.40;;;;;;;;;;5094769;28;20829;-73
2023/01/30 01:37:27;;;;;;;30.70;15.30;;;;;;;;;;5095223;28;20943;-74
2023/01/30 01:42:39;;;;;;;29.33;16.30;;;;;;;;;;5095133;28;20406;-74
2023/01/30 01:45:16;;;;;;;38.80;15.50;;;;;;;;;;5094767;28;20454;-73
2023/01/30 01:47:46;;;;;;;38.53;16.70;;;;;;;;;;5095008;28;20485;-73
2023/01/30 01:50:14;;;;;;;35.13;16.07;;;;;;;;;;5094652;28;20475;-73
2023/01/30 01:52:41;;;;;;;36.97;17.10;;;;;;;;;;5094985;28;20848;-73
2023/01/30 01:55:09;;;;;;;30.07;16.17;;;;;;;;;;5094428;28;20455;-73
2023/01/30 01:57:39;;;;;;;35.87;17.17;;;;;;;;;;5094635;28;20458;-73
2023/01/30 02:00:10;;;;;;;41.20;17.70;;;;;;;;;;5094779;28;20471;-73
2023/01/30 02:02:38;;;;;;;36.90;19.20;;;;;;;;;;5094464;28;20459;-73
2023/01/30 02:05:06;;;;;;;36.43;19.80;;;;;;;;;;5094390;28;20829;-73
2023/01/30 02:07:35;;;;;;;36.73;16.20;;;;;;;;;;5094459;28;20514;-73
2023/01/30 02:10:02;;;;;;;32.70;17.63;;;;;;;;;;5093675;28;20479;-73
2023/01/30 02:12:30;;;;;;;29.37;14.27;;;;;;;;;;5094327;28;20449;-73
2023/01/30 02:14:58;;;;;;;31.53;14.50;;;;;;;;;;5094007;28;20454;-74
2023/01/30 02:17:26;;;;;;;30.57;16.60;;;;;;;;;;5094036;28;20458;-74
2023/01/30 02:19:55;;;;;;;35.77;16.73;;;;;;;;;;5094142;28;20986;-74
2023/01/30 02:22:39;;;;;;;31.90;16.63;;;;;;;;;;5094044;28;20462;-73
2023/01/30 02:25:19;;;;;;;38.80;17.57;;;;;;;;;;5093925;28;20459;-73
2023/01/30 02:28:02;;;;;;;34.87;16.73;;;;;;;;;;5093754;28;20497;-75
2023/01/30 02:31:01;;;;;;;36.63;16.87;;;;;;;;;;5094499;28;20474;-73
2023/01/30 02:33:32;;;;;;;40.00;18.20;;;;;;;;;;5094135;28;20778;-74
2023/01/30 02:36:04;;;;;;;39.90;15.70;;;;;;;;;;5093821;28;20498;-74
2023/01/30 02:38:36;;;;;;;38.60;15.93;;;;;;;;;;5093706;28;20497;-74
2023/01/30 02:41:10;;;;;;;36.43;17.70;;;;;;;;;;5093810;28;20943;-73
2023/01/30 02:43:41;;;;;;;32.50;15.27;;;;;;;;;;5093846;28;20454;-74
2023/01/30 02:46:12;;;;;;;45.67;18.20;;;;;;;;;;5094176;28;20989;-75
2023/01/30 02:48:41;;;;;;;35.10;16.57;;;;;;;;;;5093562;28;20490;-74
2023/01/30 02:51:10;;;;;;;31.07;18.27;;;;;;;;;;5093624;28;20458;-73
2023/01/30 02:53:38;;;;;;;35.93;18.37;;;;;;;;;;5093644;28;20454;-74
2023/01/30 02:56:06;;;;;;;35.13;16.27;;;;;;;;;;5093811;28;20868;-73
2023/01/30 02:58:35;;;;;;;38.20;17.70;;;;;;;;;;5093488;28;20451;-73
2023/01/30 03:01:13;;;;;;;35.43;16.20;;;;;;;;;;5093182;28;20454;-74
2023/01/30 03:03:58;;;;;;;34.90;15.77;;;;;;;;;;5093666;28;20765;-73
2023/01/30 03:06:34;;;;;;;39.10;17.67;;;;;;;;;;5093513;28;20442;-73
2023/01/30 03:09:07;;;;;;;43.67;16.73;;;;;;;;;;5093453;28;20486;-73
2023/01/30 03:11:38;;;;;;;34.53;17.80;;;;;;;;;;5093556;28;20447;-74
2023/01/30 03:14:08;;;;;;;37.43;19.63;;;;;;;;;;5093172;28;20442;-74
2023/01/30 03:16:37;;;;;;;36.80;19.17;;;;;;;;;;5093729;28;20846;-74
2023/01/30 03:19:07;;;;;;;40.23;19.90;;;;;;;;;;5093109;28;20857;-74
2023/01/30 03:21:34;;;;;;;34.27;17.20;;;;;;;;;;5092956;28;20457;-73
2023/01/30 03:24:01;;;;;;;29.33;14.53;;;;;;;;;;5093163;28;20463;-74
2023/01/30 03:26:30;;;;;;;35.53;16.40;;;;;;;;;;5093383;28;20851;-74
2023/01/30 03:28:57;;;;;;;47.43;17.67;;;;;;;;;;5093211;28;20490;-74
2023/01/30 03:31:24;;;;;;;32.30;16.50;;;;;;;;;;5093501;28;20809;-73
2023/01/30 03:33:51;;;;;;;30.37;16.00;;;;;;;;;;5093329;28;20454;-74
2023/01/30 03:36:20;;;;;;;32.53;17.70;;;;;;;;;;5093397;28;20450;-74
2023/01/30 03:38:47;;;;;;;31.33;17.23;;;;;;;;;;5092828;28;20813;-74
2023/01/30 03:41:14;;;;;;;40.17;18.43;;;;;;;;;;5093027;28;20450;-74
2023/01/30 03:43:41;;;;;;;23.70;14.63;;;;;;;;;;5093181;28;20461;-73
2023/01/30 03:46:08;;;;;;;29.00;15.40;;;;;;;;;;5092987;28;20465;-73
2023/01/30 03:48:35;;;;;;;39.63;18.47;;;;;;;;;;5093009;28;20576;-74
2023/01/30 03:51:03;;;;;;;37.77;16.40;;;;;;;;;;5092896;28;20939;-74
2023/01/30 03:53:31;;;;;;;38.53;19.20;;;;;;;;;;5092770;28;20825;-74
2023/01/30 03:55:58;;;;;;;32.67;15.33;;;;;;;;;;5092750;28;20455;-74
2023/01/30 03:58:25;;;;;;;38.30;16.33;;;;;;;;;;5092814;28;20443;-73
2023/01/30 04:00:52;;;;;;;30.93;17.97;;;;;;;;;;5093069;28;20450;-74
2023/01/30 04:03:19;;;;;;;45.83;18.57;;;;;;;;;;5093202;28;20446;-74
2023/01/30 04:05:46;;;;;;;39.27;18.67;;;;;;;;;;5092490;28;20459;-74
2023/01/30 04:08:14;;;;;;;39.00;18.10;;;;;;;;;;5092738;28;20474;-74
2023/01/30 04:10:42;;;;;;;20.60;11.47;;;;;;;;;;5092772;28;20950;-73
2023/01/30 04:13:09;;;;;;;39.67;17.07;;;;;;;;;;5092791;28;20942;-73
2023/01/30 04:15:36;;;;;;;18.67;11.50;;;;;;;;;;5092912;28;20450;-72
2023/01/30 04:18:03;;;;;;;28.37;11.90;;;;;;;;;;5092961;28;20450;-73
2023/01/30 04:20:30;;;;;;;26.60;9.37;;;;;;;;;;5092655;28;20482;-73
2023/01/30 04:22:57;;;;;;;32.93;18.20;;;;;;;;;;5092674;28;20520;-73
2023/01/30 04:25:25;;;;;;;33.73;15.93;;;;;;;;;;5092391;28;20455;-72
2023/01/30 04:27:53;;;;;;;33.73;15.93;;;;;;;;;;5092659;28;20455;-73
2023/01/30 04:30:20;;;;;;;38.17;17.57;;;;;;;;;;5092680;28;20478;-72
2023/01/30 04:32:47;;;;;;;34.00;18.00;;;;;;;;;;5094412;28;20491;-73
2023/01/30 04:35:14;;;;;;;29.90;15.97;;;;;;;;;;5096042;28;20450;-72
2023/01/30 04:37:42;;;;;;;34.67;17.90;;;;;;;;;;5096111;28;20447;-74
2023/01/30 04:40:09;;;;;;;33.47;16.03;;;;;;;;;;5096249;28;20497;-73
2023/01/30 04:42:36;;;;;;;29.77;14.07;;;;;;;;;;5096385;28;20511;-73
2023/01/30 04:45:05;;;;;;;29.10;14.60;;;;;;;;;;5095847;28;20455;-73
2023/01/30 04:47:32;;;;;;;38.20;19.77;;;;;;;;;;5096195;28;20454;-73
2023/01/30 04:50:00;;;;;;;19.90;9.87;;;;;;;;;;5095820;28;20498;-73
2023/01/30 04:52:27;;;;;;;25.67;14.80;;;;;;;;;;5096203;28;20447;-73
2023/01/30 04:54:54;;;;;;;29.77;15.67;;;;;;;;;;5095967;28;20451;-74
2023/01/30 04:57:21;;;;;;;29.43;16.17;;;;;;;;;;5096054;28;20454;-73
2023/01/30 04:59:48;;;;;;;34.60;16.67;;;;;;;;;;5095636;28;20467;-73
2023/01/30 05:02:16;;;;;;;29.50;15.50;;;;;;;;;;5095877;28;20443;-73
2023/01/30 05:04:43;;;;;;;32.40;16.30;;;;;;;;;;5095925;28;20435;-73
2023/01/30 05:07:11;;;;;;;32.63;16.87;;;;;;;;;;5095955;28;20435;-73
2023/01/30 05:09:38;;;;;;;32.20;16.60;;;;;;;;;;5095458;28;20567;-73
2023/01/30 05:12:05;;;;;;;28.83;15.57;;;;;;;;;;5095900;28;20952;-73
2023/01/30 05:14:33;;;;;;;27.77;15.67;;;;;;;;;;5095309;28;20939;-73
2023/01/30 05:17:00;;;;;;;32.53;16.60;;;;;;;;;;5095717;28;20454;-72
2023/01/30 05:19:29;;;;;;;34.33;15.13;;;;;;;;;;5095355;28;20990;-73
2023/01/30 05:21:56;;;;;;;21.60;12.87;;;;;;;;;;5095412;28;20828;-73
2023/01/30 05:24:23;;;;;;;44.57;13.37;;;;;;;;;;5095249;28;20462;-73
2023/01/30 05:26:50;;;;;;;32.77;13.77;;;;;;;;;;5095218;28;20450;-73
2023/01/30 05:29:17;;;;;;;27.47;13.00;;;;;;;;;;5095379;28;20490;-73
2023/01/30 05:31:44;;;;;;;22.63;11.33;;;;;;;;;;5095538;28;20454;-73
2023/01/30 05:34:11;;;;;;;31.13;17.27;;;;;;;;;;5095324;28;20474;-73
2023/01/30 05:36:40;;;;;;;16.90;9.30;;;;;;;;;;5095144;28;20454;-73
2023/01/30 05:39:07;;;;;;;31.50;16.40;;;;;;;;;;5094926;28;20475;-73
2023/01/30 05:41:34;;;;;;;28.10;14.20;;;;;;;;;;5094790;28;20461;-73
2023/01/30 05:44:01;;;;;;;28.77;13.50;;;;;;;;;;5095137;28;20919;-73
2023/01/30 05:46:28;;;;;;;31.27;13.33;;;;;;;;;;5095186;28;20473;-73
2023/01/30 05:48:55;;;;;;;29.13;15.33;;;;;;;;;;5094933;28;20498;-73
2023/01/30 05:51:23;;;;;;;29.17;13.87;;;;;;;;;;5095179;28;20447;-73
2023/01/30 05:53:52;;;;;;;25.83;13.53;;;;;;;;;;5094911;28;20828;-73
2023/01/30 05:56:19;;;;;;;25.50;13.43;;;;;;;;;;5094979;28;20451;-73
2023/01/30 05:58:50;;;;;;;21.27;8.80;;;;;;;;;;5094543;28;20467;-73
2023/01/30 06:01:17;;;;;;;29.80;14.93;;;;;;;;;;5094793;28;20846;-73
2023/01/30 06:03:44;;;;;;;37.23;15.17;;;;;;;;;;5094754;28;20454;-73
2023/01/30 06:06:12;;;;;;;23.37;11.33;;;;;;;;;;5094619;28;20934;-73
2023/01/30 06:08:40;;;;;;;28.37;15.23;;;;;;;;;;5094551;28;20495;-73
2023/01/30 06:11:09;;;;;;;19.53;11.43;;;;;;;;;;5094435;28;20532;-73
2023/01/30 06:13:37;;;;;;;26.00;13.10;;;;;;;;;;5094379;28;20454;-74
2023/01/30 06:16:04;;;;;;;18.80;8.97;;;;;;;;;;5094253;28;20559;-73
2023/01/30 06:18:31;;;;;;;32.40;14.40;;;;;;;;;;5094243;28;20454;-72
2023/01/30 06:20:58;;;;;;;23.20;11.90;;;;;;;;;;5094104;28;20455;-74
2023/01/30 06:23:25;;;;;;;29.80;14.10;;;;;;;;;;5094455;28;20454;-74
2023/01/30 06:25:54;;;;;;;29.00;13.07;;;;;;;;;;5094053;28;20458;-73
2023/01/30 06:28:23;;;;;;;27.20;11.90;;;;;;;;;;5094258;28;20450;-73
2023/01/30 06:30:50;;;;;;;25.93;12.80;;;;;;;;;;5094173;28;20455;-73
2023/01/30 06:33:18;;;;;;;27.10;14.17;;;;;;;;;;5093894;28;20458;-73
2023/01/30 06:35:45;;;;;;;29.30;13.20;;;;;;;;;;5093838;28;20951;-73
2023/01/30 06:38:13;;;;;;;25.43;12.10;;;;;;;;;;5093860;28;20462;-73
2023/01/30 06:40:40;;;;;;;25.10;12.50;;;;;;;;;;5094136;28;20466;-72
2023/01/30 06:43:07;;;;;;;22.50;11.93;;;;;;;;;;5093875;28;20457;-72
2023/01/30 06:45:36;;;;;;;21.90;12.97;;;;;;;;;;5094133;28;20958;-71
2023/01/30 06:48:03;;;;;;;20.20;12.07;;;;;;;;;;5093511;28;20532;-72
2023/01/30 06:50:31;;;;;;;32.20;13.10;;;;;;;;;;5093884;28;20501;-72
2023/01/30 06:52:58;;;;;;;30.67;14.50;;;;;;;;;;5093461;28;20451;-72
2023/01/30 06:55:27;;;;;;;22.77;12.27;;;;;;;;;;5093322;28;20538;-72
2023/01/30 06:58:01;;;;;;;19.20;10.40;;;;;;;;;;5093836;28;20450;-72
2023/01/30 07:00:28;;;;;;;19.80;10.53;;;;;;;;;;5093748;28;20974;-72
2023/01/30 07:02:57;;;;;;;29.67;12.33;;;;;;;;;;5093618;28;20462;-72
2023/01/30 07:05:24;;;;;;;21.77;11.27;;;;;;;;;;5093822;28;20442;-73
2023/01/30 07:07:51;;;;;;;23.67;11.00;;;;;;;;;;5093678;28;20442;-72
2023/01/30 07:10:19;;;;;;;24.67;13.00;;;;;;;;;;5093519;28;20577;-73
2023/01/30 07:12:46;;;;;;;26.50;11.23;;;;;;;;;;5093355;28;20446;-74
2023/01/30 07:15:13;;;;;;;27.50;11.87;;;;;;;;;;5093542;28;20466;-73
2023/01/30 07:17:41;;;;;;;26.37;11.37;;;;;;;;;;5093454;28;20947;-73
2023/01/30 07:20:11;;;;;;;23.27;11.63;;;;;;;;;;5093353;28;20501;-73
2023/01/30 07:22:38;;;;;;;35.93;15.23;;;;;;;;;;5093530;28;20482;-73
2023/01/30 07:25:05;;;;;;;22.37;13.50;;;;;;;;;;5093001;28;20470;-73
2023/01/30 07:27:32;;;;;;;31.27;13.40;;;;;;;;;;5093529;28;20446;-73
2023/01/30 07:29:59;;;;;;;30.13;13.57;;;;;;;;;;5092916;28;20487;-73
2023/01/30 07:32:26;;;;;;;31.67;13.30;;;;;;;;;;5093418;28;20473;-73
2023/01/30 07:34:53;;;;;;;17.33;10.23;;;;;;;;;;5093007;28;20454;-73
2023/01/30 07:37:22;;;;;;;20.00;11.90;;;;;;;;;;5093055;28;20441;-73
2023/01/30 07:39:49;;;;;;;24.03;10.47;;;;;;;;;;5093255;28;20986;-73
2023/01/30 07:42:16;;;;;;;17.67;10.83;;;;;;;;;;5093243;28;20455;-73
2023/01/30 07:44:43;;;;;;;18.97;10.13;;;;;;;;;;5093001;28;20459;-73
2023/01/30 07:47:10;;;;;;;23.63;11.30;;;;;;;;;;5093042;28;20451;-73
2023/01/30 07:49:37;;;;;;;25.03;13.30;;;;;;;;;;5093440;28;20493;-73
2023/01/30 07:52:04;;;;;;;24.53;12.93;;;;;;;;;;5093351;28;20816;-73
2023/01/30 07:54:33;;;;;;;28.53;15.10;;;;;;;;;;5093257;28;21056;-73
2023/01/30 07:57:00;;;;;;;24.50;12.77;;;;;;;;;;5093184;28;20458;-73
2023/01/30 07:59:27;;;;;;;19.97;12.33;;;;;;;;;;5092897;28;20481;-72
2023/01/30 08:01:55;;;;;;;19.90;10.13;;;;;;;;;;5087038;28;20466;-73
2023/01/30 08:04:23;;;;;;;20.80;11.30;;;;;;;;;;5091337;28;20457;-73
2023/01/30 08:06:50;;;;;;;18.50;8.80;;;;;;;;;;5092403;28;20532;-72
2023/01/30 08:09:17;;;;;;;20.07;10.00;;;;;;;;;;5095549;28;20936;-72
2023/01/30 08:11:45;;;;;;;19.57;10.77;;;;;;;;;;5095697;28;20455;-73
2023/01/30 08:14:12;;;;;;;16.90;8.83;;;;;;;;;;5095771;28;20446;-72
2023/01/30 08:16:39;;;;;;;15.47;9.33;;;;;;;;;;5095681;28;20474;-72
2023/01/30 08:19:06;;;;;;;11.90;7.33;;;;;;;;;;5096290;28;20474;-72
2023/01/30 08:21:33;;;;;;;21.90;9.90;;;;;;;;;;5096515;28;20449;-72
2023/01/30 08:24:01;;;;;;;15.07;8.50;;;;;;;;;;5096527;28;20458;-72
2023/01/30 08:26:28;;;;;;;18.73;8.83;;;;;;;;;;5096500;28;20430;-72
2023/01/30 08:28:56;;;;;;;16.90;9.67;;;;;;;;;;5096539;28;20474;-73
2023/01/30 08:31:23;;;;;;;16.70;9.50;;;;;;;;;;5096637;28;20447;-72
2023/01/30 08:33:51;;;;;;;12.83;7.50;;;;;;;;;;5096516;28;20950;-72
2023/01/30 08:36:18;;;;;;;19.37;10.40;;;;;;;;;;5096435;28;20442;-72
2023/01/30 08:38:45;;;;;;;14.47;7.90;;;;;;;;;;5096343;28;20470;-72
2023/01/30 08:41:12;;;;;;;14.50;8.80;;;;;;;;;;5096387;28;20497;-72
2023/01/30 08:43:39;;;;;;;13.57;8.20;;;;;;;;;;5096547;28;20455;-72
2023/01/30 08:46:08;;;;;;;13.63;8.90;;;;;;;;;;5096443;28;20442;-72
2023/01/30 08:48:37;;;;;;;15.13;8.13;;;;;;;;;;5096463;28;20457;-72
2023/01/30 08:51:04;;;;;;;11.73;7.80;;;;;;;;;;5096116;28;20836;-72
2023/01/30 08:53:31;;;;;;;13.73;9.03;;;;;;;;;;5096196;28;20928;-72
2023/01/30 08:55:58;;;;;;;15.57;8.03;;;;;;;;;;5096239;28;20459;-72
2023/01/30 08:58:25;;;;;;;15.37;6.97;;;;;;;;;;5096057;28;20459;-72
2023/01/30 09:00:52;;;;;;;11.93;6.27;;;;;;;;;;5095831;28;20446;-72
2023/01/30 09:03:21;;;;;;;14.70;8.03;;;;;;;;;;5095697;28;20458;-72
2023/01/30 09:05:48;;;;;;;15.27;7.90;;;;;;;;;;5095710;28;20458;-72
2023/01/30 09:08:15;;;;;;;16.53;7.67;;;;;;;;;;5095616;28;20458;-72
2023/01/30 09:10:42;;;;;;;12.10;7.90;;;;;;;;;;5095802;28;21017;-73
2023/01/30 09:13:10;;;;;;;12.10;7.60;;;;;;;;;;5095927;28;20814;-72
2023/01/30 09:15:37;;;;;;;9.57;5.23;;;;;;;;;;5095485;28;20454;-73
2023/01/30 09:18:04;;;;;;;12.20;6.80;;;;;;;;;;5092390;28;20815;-73
2023/01/30 09:20:33;;;;;;;18.53;9.53;;;;;;;;;;5093998;28;20997;-73
2023/01/30 09:23:00;;;;;;;14.67;8.57;;;;;;;;;;5094391;28;20457;-73
2023/01/30 09:25:28;;;;;;;13.70;7.00;;;;;;;;;;5094072;28;20958;-73
2023/01/30 09:27:55;;;;;;;13.23;7.23;;;;;;;;;;5094167;28;21170;-73
2023/01/30 09:30:22;;;;;;;10.40;6.90;;;;;;;;;;5094058;28;20509;-72
2023/01/30 09:32:49;;;;;;;9.57;6.70;;;;;;;;;;5085347;28;20475;-73
2023/01/30 09:35:16;;;;;;;12.57;8.20;;;;;;;;;;5073720;28;20459;-73
2023/01/30 09:37:48;;;;;;;11.90;6.40;;;;;;;;;;5074128;28;20969;-73
2023/01/30 09:40:17;;;;;;;11.83;6.93;;;;;;;;;;5073973;28;20577;-73
2023/01/30 09:42:55;;;;;;;13.00;5.87;;;;;;;;;;5073878;28;20837;-72
2023/01/30 09:45:28;;;;;;;14.07;8.20;;;;;;;;;;5073927;28;20439;-73
2023/01/30 09:48:02;;;;;;;14.70;7.67;;;;;;;;;;5073555;28;20436;-72
2023/01/30 09:50:37;;;;;;;12.87;6.37;;;;;;;;;;5073577;28;20831;-73
2023/01/30 09:53:08;;;;;;;14.50;5.70;;;;;;;;;;5073536;28;20443;-73
2023/01/30 09:55:37;;;;;;;7.83;4.67;;;;;;;;;;5073315;28;20441;-73
2023/01/30 09:58:05;;;;;;;9.47;6.10;;;;;;;;;;5073433;28;20462;-73
2023/01/30 10:00:35;;;;;;;16.67;7.70;;;;;;;;;;5073487;28;20995;-72
2023/01/30 10:03:05;;;;;;;11.50;7.30;;;;;;;;;;5073054;28;20483;-73
2023/01/30 10:05:37;;;;;;;11.83;6.40;;;;;;;;;;5073384;28;20447;-73
2023/01/30 10:08:10;;;;;;;17.17;8.07;;;;;;;;;;5073198;28;20439;-73
2023/01/30 10:10:42;;;;;;;8.93;6.30;;;;;;;;;;5073226;28;20488;-73
2023/01/30 10:13:12;;;;;;;12.17;7.40;;;;;;;;;;5073164;28;20459;-73
2023/01/30 10:15:46;;;;;;;15.23;7.63;;;;;;;;;;5073307;28;20912;-73
2023/01/30 10:18:32;;;;;;;13.43;7.43;;;;;;;;;;5073140;28;20432;-73
2023/01/30 10:21:04;;;;;;;10.53;6.03;;;;;;;;;;5072969;28;20439;-73
2023/01/30 10:23:43;;;;;;;18.87;8.13;;;;;;;;;;5073105;28;20440;-73
2023/01/30 10:26:11;;;;;;;14.30;7.63;;;;;;;;;;5073223;28;20477;-72
2023/01/30 10:28:39;;;;;;;14.17;7.40;;;;;;;;;;5072832;28;20981;-73
2023/01/30 10:31:10;;;;;;;9.20;5.10;;;;;;;;;;5072136;28;20484;-73
2023/01/30 10:33:43;;;;;;;15.57;6.83;;;;;;;;;;5072893;28;20444;-73
2023/01/30 10:36:12;;;;;;;11.07;6.50;;;;;;;;;;5072618;28;20440;-72
2023/01/30 10:38:45;;;;;;;7.30;5.33;;;;;;;;;;5072843;28;20478;-73
2023/01/30 10:41:16;;;;;;;9.53;6.80;;;;;;;;;;5072916;28;20901;-73
2023/01/30 10:43:44;;;;;;;6.77;4.37;;;;;;;;;;5072799;28;20444;-73
2023/01/30 10:46:16;;;;;;;12.60;5.47;;;;;;;;;;5072563;28;20460;-73
2023/01/30 10:48:50;;;;;;;5.47;4.00;;;;;;;;;;5072223;28;20468;-73
2023/01/30 10:51:22;;;;;;;10.53;5.70;;;;;;;;;;5072183;28;20479;-73
2023/01/30 10:53:53;;;;;;;7.57;5.37;;;;;;;;;;5072389;28;20456;-73
2023/01/30 10:56:23;;;;;;;6.63;4.60;;;;;;;;;;5072157;28;20436;-73
2023/01/30 10:58:53;;;;;;;7.30;5.17;;;;;;;;;;5071989;28;20482;-73
2023/01/30 11:01:24;;;;;;;10.83;6.53;;;;;;;;;;5072170;28;20436;-72
2023/01/30 11:03:54;;;;;;;10.57;6.33;;;;;;;;;;5072371;28;20436;-73
2023/01/30 11:06:23;;;;;;;9.77;5.90;;;;;;;;;;5073169;28;20459;-72
2023/01/30 11:08:52;;;;;;;10.90;6.40;;;;;;;;;;5072956;28;20490;-73
2023/01/30 11:11:26;;;;;;;7.00;5.07;;;;;;;;;;5073414;28;20492;-73
2023/01/30 11:14:01;;;;;;;9.87;6.70;;;;;;;;;;5073545;28;20443;-73
2023/01/30 11:16:28;;;;;;;7.23;4.10;;;;;;;;;;5073117;28;20443;-72
2023/01/30 11:18:58;;;;;;;10.70;6.50;;;;;;;;;;5073325;28;20991;-72
2023/01/30 11:21:27;;;;;;;8.40;5.17;;;;;;;;;;5073694;28;20497;-72
2023/01/30 11:23:55;;;;;;;19.47;5.93;;;;;;;;;;5073189;28;20458;-72
2023/01/30 11:26:24;;;;;;;7.47;4.57;;;;;;;;;;5073477;28;20445;-72
2023/01/30 11:28:52;;;;;;;16.67;5.20;;;;;;;;;;5073279;28;20472;-73
2023/01/30 11:31:20;;;;;;;7.97;5.60;;;;;;;;;;5073221;28;20487;-72
2023/01/30 11:33:59;;;;;;;8.77;5.97;;;;;;;;;;5073280;28;20936;-73
2023/01/30 11:36:28;;;;;;;7.10;4.83;;;;;;;;;;5073336;28;20436;-72
2023/01/30 11:38:58;;;;;;;6.93;4.50;;;;;;;;;;5073235;28;20468;-72
2023/01/30 11:41:25;;;;;;;6.07;3.67;;;;;;;;;;5074807;28;20819;-72
2023/01/30 11:44:00;;;;;;;8.20;5.20;;;;;;;;;;5077400;28;20497;-72
2023/01/30 11:46:29;;;;;;;5.90;4.77;;;;;;;;;;5077331;28;20900;-72
2023/01/30 11:49:01;;;;;;;7.43;4.50;;;;;;;;;;5077116;28;20865;-72
2023/01/30 11:51:28;;;;;;;8.37;5.10;;;;;;;;;;5077405;28;20827;-72
2023/01/30 11:53:57;;;;;;;8.60;4.40;;;;;;;;;;5077228;28;20806;-72
2023/01/30 11:56:30;;;;;;;8.50;5.17;;;;;;;;;;5077076;28;20456;-72
2023/01/30 11:58:59;;;;;;;10.73;7.27;;;;;;;;;;5076943;28;20471;-72
2023/01/30 12:01:27;;;;;;;10.83;7.10;;;;;;;;;;5076963;28;20447;-72
2023/01/30 12:03:55;;;;;;;11.40;5.60;;;;;;;;;;5077001;28;20459;-73
2023/01/30 12:06:23;;;;;;;13.60;7.60;;;;;;;;;;5076581;28;20456;-73
2023/01/30 12:08:52;;;;;;;14.90;7.20;;;;;;;;;;5076796;28;20502;-73
2023/01/30 12:11:31;;;;;;;10.37;5.27;;;;;;;;;;5076667;28;20483;-73
2023/01/30 12:14:09;;;;;;;10.27;5.93;;;;;;;;;;5076455;28;20443;-72
2023/01/30 12:16:44;;;;;;;11.10;6.23;;;;;;;;;;5076639;28;20923;-73
2023/01/30 12:19:21;;;;;;;11.10;5.83;;;;;;;;;;5076631;28;20471;-73
2023/01/30 12:21:50;;;;;;;8.83;4.93;;;;;;;;;;5076590;28;20907;-73
2023/01/30 12:24:21;;;;;;;9.63;5.63;;;;;;;;;;5076256;28;20463;-73
2023/01/30 12:26:51;;;;;;;10.87;5.27;;;;;;;;;;5076591;28;20924;-73
2023/01/30 12:29:24;;;;;;;10.00;5.40;;;;;;;;;;5076058;28;20474;-72
2023/01/30 12:31:55;;;;;;;9.83;5.53;;;;;;;;;;5076076;28;20498;-73
2023/01/30 12:34:23;;;;;;;11.53;6.03;;;;;;;;;;5076031;28;20439;-72
2023/01/30 12:36:54;;;;;;;10.97;5.87;;;;;;;;;;5076352;28;20936;-72
2023/01/30 12:39:28;;;;;;;9.73;5.33;;;;;;;;;;5076217;28;20474;-72
2023/01/30 12:42:09;;;;;;;11.00;5.83;;;;;;;;;;5076234;28;20427;-72
2023/01/30 12:44:45;;;;;;;21.80;7.43;;;;;;;;;;5076152;28;20784;-72
2023/01/30 12:47:24;;;;;;;11.03;4.73;;;;;;;;;;5075827;28;20432;-72
2023/01/30 12:49:58;;;;;;;11.50;5.90;;;;;;;;;;5075950;28;20494;-71
2023/01/30 12:52:34;;;;;;;8.40;5.60;;;;;;;;;;5075028;28;20463;-71
2023/01/30 12:55:06;;;;;;;9.53;5.27;;;;;;;;;;5075965;28;20435;-72
2023/01/30 12:57:38;;;;;;;8.37;4.97;;;;;;;;;;5075905;28;20432;-72
2023/01/30 13:00:08;;;;;;;7.57;4.50;;;;;;;;;;5075839;28;20472;-72
2023/01/30 13:02:41;;;;;;;9.83;5.00;;;;;;;;;;5075820;28;20452;-71
2023/01/30 13:05:20;;;;;;;7.50;4.93;;;;;;;;;;5075811;28;20443;-71
2023/01/30 13:07:52;;;;;;;7.40;4.70;;;;;;;;;;5075390;28;20443;-71
2023/01/30 13:10:21;;;;;;;7.60;5.33;;;;;;;;;;5075380;28;20471;-71
2023/01/30 13:12:53;;;;;;;4.47;2.87;;;;;;;;;;5075593;28;20975;-72
2023/01/30 13:15:22;;;;;;;8.40;5.03;;;;;;;;;;5075632;28;20442;-72
2023/01/30 13:17:54;;;;;;;6.50;4.53;;;;;;;;;;5075496;28;20471;-71
2023/01/30 13:20:32;;;;;;;9.43;4.70;;;;;;;;;;5075464;28;20471;-71
2023/01/30 13:23:02;;;;;;;6.67;4.13;;;;;;;;;;5075406;28;20436;-72
2023/01/30 13:25:37;;;;;;;8.03;5.30;;;;;;;;;;5075408;28;20460;-71
2023/01/30 13:28:07;;;;;;;10.00;4.70;;;;;;;;;;5075281;28;20431;-72
2023/01/30 13:30:34;;;;;;;8.13;4.77;;;;;;;;;;5075502;28;20483;-72
2023/01/30 13:33:04;;;;;;;8.00;4.70;;;;;;;;;;5075245;28;20458;-71
2023/01/30 13:35:33;;;;;;;7.00;3.53;;;;;;;;;;5075141;28;20452;-72
2023/01/30 13:38:01;;;;;;;8.23;4.87;;;;;;;;;;5075145;28;20460;-71
2023/01/30 13:40:31;;;;;;;6.23;4.37;;;;;;;;;;5074752;28;20471;-72
2023/01/30 13:43:00;;;;;;;5.90;3.93;;;;;;;;;;5075130;28;20440;-72
2023/01/30 13:45:31;;;;;;;9.80;5.03;;;;;;;;;;5074662;28;20436;-72
2023/01/30 13:48:10;;;;;;;7.90;3.63;;;;;;;;;;5074670;28;20462;-72
2023/01/30 13:50:42;;;;;;;8.60;3.57;;;;;;;;;;5074793;28;20475;-71
2023/01/30 13:53:12;;;;;;;11.70;3.93;;;;;;;;;;5074523;28;20447;-72
2023/01/30 13:55:41;;;;;;;8.27;3.80;;;;;;;;;;5074565;28;20447;-71
2023/01/30 13:58:13;;;;;;;4.60;3.43;;;;;;;;;;5074745;28;20474;-71
2023/01/30 14:00:52;;;;;;;5.10;3.50;;;;;;;;;;5074615;28;20830;-72
2023/01/30 14:03:27;;;;;;;6.10;3.43;;;;;;;;;;5074645;28;20454;-71
2023/01/30 14:06:13;;;;;;;3.60;2.10;;;;;;;;;;5073247;28;20442;-71
2023/01/30 14:08:48;;;;;;;4.90;2.70;;;;;;;;;;5074264;28;20471;-72
2023/01/30 14:11:35;;;;;;;4.83;3.20;;;;;;;;;;5074474;28;20471;-72
2023/01/30 14:14:04;;;;;;;10.87;3.13;;;;;;;;;;5074071;28;20440;-72
2023/01/30 14:16:44;;;;;;;7.07;3.90;;;;;;;;;;5074374;28;20447;-72
2023/01/30 14:19:31;;;;;;;7.80;4.37;;;;;;;;;;5074322;28;20475;-71
2023/01/30 14:22:00;;;;;;;7.40;3.37;;;;;;;;;;5074297;28;20432;-71
2023/01/30 14:24:30;;;;;;;7.43;3.77;;;;;;;;;;5073956;28;20463;-72
2023/01/30 14:27:01;;;;;;;8.80;4.37;;;;;;;;;;5074200;28;20452;-71
2023/01/30 14:29:48;;;;;;;7.50;4.07;;;;;;;;;;5074053;28;20463;-71
2023/01/30 14:32:30;;;;;;;5.70;4.40;;;;;;;;;;5073620;28;20483;-71
2023/01/30 14:35:15;;;;;;;10.50;4.27;;;;;;;;;;5074022;28;20844;-72
2023/01/30 14:37:47;;;;;;;8.33;4.43;;;;;;;;;;5073605;28;20463;-72
2023/01/30 14:40:33;;;;;;;8.00;4.60;;;;;;;;;;5073897;28;20477;-72
2023/01/30 14:43:19;;;;;;;6.90;4.27;;;;;;;;;;5073618;28;20427;-71
2023/01/30 14:45:48;;;;;;;6.47;3.73;;;;;;;;;;5073837;28;20967;-72
2023/01/30 14:48:36;;;;;;;7.90;3.93;;;;;;;;;;5073860;28;20435;-72